createdAt,value
2018-09-24T00:00:45.123Z,96.45
2018-09-24T00:01:45.409Z,96.14
2018-09-24T00:02:45.717Z,96.69
2018-09-24T00:03:46.043Z,97.41
2018-09-24T00:04:46.552Z,96.58
2018-09-24T00:05:46.560Z,96.64
2018-09-24T00:06:46.874Z,97.67
2018-09-24T00:07:47.249Z,97.55
2018-09-24T00:08:47.602Z,97.31
2018-09-24T00:09:48.397Z,97.61
2018-09-24T00:10:49.221Z,97.06
2018-09-24T00:11:49.545Z,97.29
2018-09-24T00:12:50.053Z,97.75
2018-09-24T00:13:50.470Z,97.40
2018-09-24T00:14:50.890Z,97.67
2018-09-24T00:15:51.160Z,97.72
2018-09-24T00:16:51.362Z,98.03
2018-09-24T00:17:51.725Z,98.17
2018-09-24T00:18:51.736Z,98.22
2018-09-24T00:19:51.937Z,98.08
2018-09-24T00:20:52.081Z,97.85
2018-09-24T00:21:51.736Z,97.75
2018-09-24T00:22:52.410Z,98.36
2018-09-24T00:23:52.571Z,98.37
2018-09-24T00:24:52.677Z,98.57
2018-09-24T00:25:54.069Z,98.52
2018-09-24T00:26:53.230Z,98.90
2018-09-24T00:27:53.612Z,98.13
2018-09-24T00:28:53.795Z,98.37
2018-09-24T00:29:54.096Z,98.77
2018-09-24T00:30:53.901Z,98.73
2018-09-24T00:31:54.444Z,98.76
2018-09-24T00:32:54.397Z,98.73
2018-09-24T00:33:54.823Z,98.57
2018-09-24T00:34:55.149Z,98.55
2018-09-24T00:35:55.450Z,98.48
2018-09-24T00:36:55.805Z,98.91
2018-09-24T00:37:56.442Z,98.81
2018-09-24T00:38:56.223Z,98.85
2018-09-24T00:39:56.678Z,99.31
2018-09-24T00:40:57.057Z,98.75
2018-09-24T00:41:57.892Z,99.61
2018-09-24T00:42:57.745Z,99.86
2018-09-24T00:43:58.161Z,99.92
2018-09-24T00:44:58.484Z,99.62
2018-09-24T00:45:58.811Z,99.13
2018-09-24T00:46:59.187Z,100.00
2018-09-24T00:47:59.868Z,99.84
2018-09-24T00:48:59.627Z,99.69
2018-09-24T00:50:00.012Z,99.36
2018-09-24T00:51:00.399Z,99.35
2018-09-24T00:52:00.897Z,99.07
2018-09-24T00:53:00.980Z,98.99
2018-09-24T00:54:01.095Z,98.80
2018-09-24T00:55:01.143Z,98.70
2018-09-24T00:56:01.175Z,98.44
2018-09-24T00:57:01.566Z,98.42
2018-09-24T00:58:02.281Z,98.76
2018-09-24T00:59:02.492Z,98.61
2018-09-24T01:00:02.855Z,98.38
2018-09-24T01:01:02.895Z,98.73
2018-09-24T01:02:02.984Z,98.65
2018-09-24T01:03:03.594Z,98.75
2018-09-24T01:04:02.897Z,98.89
2018-09-24T01:05:04.325Z,98.65
2018-09-24T01:06:04.429Z,98.53
2018-09-24T01:07:04.333Z,98.40
2018-09-24T01:08:05.168Z,98.31
2018-09-24T01:09:05.270Z,98.26
2018-09-24T01:10:06.098Z,98.51
2018-09-24T01:11:11.949Z,98.88
2018-09-24T01:13:06.156Z,98.28
2018-09-24T01:14:06.432Z,98.28
2018-09-24T01:15:06.741Z,99.22
2018-09-24T01:16:07.039Z,98.82
2018-09-24T01:17:06.863Z,98.79
2018-09-24T01:18:07.359Z,98.55
2018-09-24T01:19:07.477Z,98.78
2018-09-24T01:20:07.927Z,98.64
2018-09-24T01:21:07.774Z,98.81
2018-09-24T01:22:08.421Z,98.73
2018-09-24T01:23:08.624Z,99.49
2018-09-24T01:24:08.412Z,99.26
2018-09-24T01:25:09.024Z,99.44
2018-09-24T01:26:09.184Z,99.73
2018-09-24T01:27:09.626Z,100.00
2018-09-24T01:28:09.566Z,100.00
2018-09-24T01:29:09.839Z,100.00
2018-09-24T01:30:10.150Z,99.70
2018-09-24T01:31:10.508Z,99.73
2018-09-24T01:32:10.935Z,100.00
2018-09-24T01:33:11.460Z,100.00
2018-09-24T01:34:11.602Z,100.00
2018-09-24T01:35:11.413Z,100.00
2018-09-24T01:36:11.671Z,100.00
2018-09-24T01:37:12.120Z,100.00
2018-09-24T01:38:12.420Z,100.00
2018-09-24T01:39:12.863Z,100.00
2018-09-24T01:40:13.445Z,100.00
2018-09-24T01:41:13.353Z,100.00
2018-09-24T01:42:13.693Z,100.00
2018-09-24T01:43:14.502Z,100.00
2018-09-24T01:44:14.327Z,100.00
2018-09-24T01:45:15.013Z,100.00
2018-09-24T01:46:14.899Z,100.00
2018-09-24T01:47:15.166Z,100.00
2018-09-24T01:48:15.486Z,100.00
2018-09-24T01:49:15.794Z,100.00
2018-09-24T01:50:16.383Z,100.00
2018-09-24T01:51:16.226Z,100.00
2018-09-24T01:52:16.495Z,100.00
2018-09-24T01:53:17.166Z,100.00
2018-09-24T01:54:17.177Z,100.00
2018-09-24T01:55:17.555Z,100.00
2018-09-24T01:56:17.508Z,100.00
2018-09-24T01:57:17.797Z,100.00
2018-09-24T01:58:18.806Z,100.00
2018-09-24T01:59:19.111Z,100.00
2018-09-24T02:00:19.523Z,100.00
2018-09-24T02:01:19.841Z,100.00
2018-09-24T02:02:19.948Z,100.00
2018-09-24T02:03:20.375Z,100.00
2018-09-24T02:04:20.680Z,100.00
2018-09-24T02:05:21.095Z,100.00
2018-09-24T02:06:21.307Z,100.00
2018-09-24T02:07:21.519Z,100.00
2018-09-24T02:08:21.843Z,100.00
2018-09-24T02:09:21.859Z,100.00
2018-09-24T02:10:21.842Z,100.00
2018-09-24T02:12:21.963Z,100.00
2018-09-24T02:13:22.180Z,100.00
2018-09-24T02:14:22.411Z,100.00
2018-09-24T02:15:22.572Z,100.00
2018-09-24T02:16:22.769Z,99.34
2018-09-24T02:17:22.936Z,99.73
2018-09-24T02:18:23.091Z,99.60
2018-09-24T02:19:23.233Z,99.70
2018-09-24T02:20:23.439Z,99.49
2018-09-24T02:21:23.799Z,99.40
2018-09-24T02:22:23.914Z,99.25
2018-09-24T02:23:24.186Z,98.14
2018-09-24T02:24:24.113Z,98.97
2018-09-24T02:25:24.445Z,98.66
2018-09-24T02:26:24.848Z,98.70
2018-09-24T02:27:25.307Z,98.07
2018-09-24T02:28:25.530Z,97.60
2018-09-24T02:29:25.890Z,97.63
2018-09-24T02:30:26.146Z,97.25
2018-09-24T02:31:26.510Z,97.57
2018-09-24T02:32:26.895Z,97.45
2018-09-24T02:33:27.505Z,97.83
2018-09-24T02:34:27.371Z,97.55
2018-09-24T02:35:27.670Z,97.29
2018-09-24T02:36:28.045Z,96.67
2018-09-24T02:37:28.397Z,96.58
2018-09-24T02:38:28.772Z,96.38
2018-09-24T02:39:29.073Z,96.63
2018-09-24T02:40:29.445Z,96.49
2018-09-24T02:41:29.729Z,96.48
2018-09-24T02:42:30.070Z,96.00
2018-09-24T02:43:30.381Z,96.15
2018-09-24T02:44:30.643Z,95.95
2018-09-24T02:45:31.105Z,96.01
2018-09-24T02:46:31.371Z,96.32
2018-09-24T02:47:31.838Z,96.19
2018-09-24T02:48:32.171Z,96.18
2018-09-24T02:49:33.163Z,96.25
2018-09-24T02:50:33.477Z,96.35
2018-09-24T02:51:34.300Z,96.45
2018-09-24T02:52:34.611Z,96.48
2018-09-24T02:53:34.731Z,96.70
2018-09-24T02:54:35.137Z,96.57
2018-09-24T02:55:35.553Z,96.59
2018-09-24T02:56:35.954Z,97.11
2018-09-24T02:57:36.083Z,97.00
2018-09-24T02:58:36.030Z,96.97
2018-09-24T02:59:36.510Z,97.18
2018-09-24T03:00:36.711Z,97.62
2018-09-24T03:01:36.925Z,97.52
2018-09-24T03:02:37.020Z,97.81
2018-09-24T03:03:37.223Z,97.58
2018-09-24T03:04:37.399Z,97.98
2018-09-24T03:05:37.667Z,98.02
2018-09-24T03:06:37.838Z,98.25
2018-09-24T03:07:38.293Z,98.41
2018-09-24T03:08:38.401Z,98.58
2018-09-24T03:09:38.491Z,98.42
2018-09-24T03:10:38.581Z,98.30
2018-09-24T03:11:38.943Z,98.72
2018-09-24T03:12:38.904Z,98.25
2018-09-24T03:13:39.186Z,98.91
2018-09-24T03:14:39.295Z,99.07
2018-09-24T03:15:39.378Z,98.90
2018-09-24T03:16:39.479Z,99.15
2018-09-24T03:17:39.504Z,99.07
2018-09-24T03:18:39.524Z,98.70
2018-09-24T03:19:39.580Z,99.17
2018-09-24T03:20:39.941Z,99.51
2018-09-24T03:21:40.305Z,99.63
2018-09-24T03:22:40.820Z,99.79
2018-09-24T03:23:40.634Z,99.77
2018-09-24T03:24:41.043Z,100.00
2018-09-24T03:25:41.404Z,99.73
2018-09-24T03:26:41.739Z,100.00
2018-09-24T03:27:42.125Z,100.00
2018-09-24T03:28:42.270Z,100.00
2018-09-24T03:29:42.855Z,100.00
2018-09-24T03:30:42.784Z,100.00
2018-09-24T03:31:43.251Z,100.00
2018-09-24T03:32:43.613Z,100.00
2018-09-24T03:33:44.035Z,100.00
2018-09-24T03:34:44.561Z,100.00
2018-09-24T03:35:44.444Z,100.00
2018-09-24T03:36:45.005Z,100.00
2018-09-24T03:37:45.084Z,100.00
2018-09-24T03:38:45.589Z,100.00
2018-09-24T03:39:45.421Z,100.00
2018-09-24T03:40:45.816Z,100.00
2018-09-24T03:41:46.303Z,100.00
2018-09-24T03:42:46.649Z,100.00
2018-09-24T03:43:46.999Z,100.00
2018-09-24T03:44:47.333Z,100.00
2018-09-24T03:45:47.624Z,100.00
2018-09-24T03:46:48.075Z,100.00
2018-09-24T03:47:48.989Z,100.00
2018-09-24T03:48:49.532Z,100.00
2018-09-24T03:49:49.835Z,100.00
2018-09-24T03:50:50.256Z,100.00
2018-09-24T03:52:50.818Z,100.00
2018-09-24T03:53:51.023Z,100.00
2018-09-24T03:54:51.198Z,100.00
2018-09-24T03:55:51.515Z,100.00
2018-09-24T03:56:51.446Z,100.00
2018-09-24T03:57:51.935Z,100.00
2018-09-24T03:58:52.057Z,100.00
2018-09-24T03:59:52.027Z,100.00
2018-09-24T04:00:52.314Z,100.00
2018-09-24T04:01:52.544Z,100.00
2018-09-24T04:02:52.647Z,100.00
2018-09-24T04:03:52.824Z,100.00
2018-09-24T04:04:53.075Z,100.00
2018-09-24T04:05:53.519Z,100.00
2018-09-24T04:06:53.896Z,100.00
2018-09-24T04:07:54.255Z,100.00
2018-09-24T04:08:54.448Z,100.00
2018-09-24T04:09:54.621Z,100.00
2018-09-24T04:10:54.549Z,100.00
2018-09-24T04:11:54.563Z,100.00
2018-09-24T04:12:54.495Z,100.00
2018-09-24T04:13:54.967Z,100.00
2018-09-24T04:14:55.392Z,100.00
2018-09-24T04:15:55.912Z,100.00
2018-09-24T04:16:55.844Z,100.00
2018-09-24T04:17:56.317Z,100.00
2018-09-24T04:18:56.861Z,100.00
2018-09-24T04:19:56.783Z,100.00
2018-09-24T04:20:57.311Z,100.00
2018-09-24T04:21:57.241Z,100.00
2018-09-24T04:22:57.676Z,100.00
2018-09-24T04:23:58.173Z,100.00
2018-09-24T04:24:59.002Z,100.00
2018-09-24T04:25:59.308Z,100.00
2018-09-24T04:26:59.220Z,100.00
2018-09-24T04:27:59.739Z,100.00
2018-09-24T04:28:59.759Z,100.00
2018-09-24T04:29:59.670Z,100.00
2018-09-24T04:31:00.154Z,100.00
2018-09-24T04:32:00.725Z,100.00
2018-09-24T04:33:00.940Z,100.00
2018-09-24T04:34:00.898Z,100.00
2018-09-24T04:35:01.514Z,100.00
2018-09-24T04:36:02.090Z,100.00
2018-09-24T04:37:01.526Z,100.00
2018-09-24T04:38:01.960Z,100.00
2018-09-24T04:39:02.856Z,100.00
2018-09-24T04:40:02.975Z,100.00
2018-09-24T04:41:02.894Z,100.00
2018-09-24T04:42:04.510Z,100.00
2018-09-24T04:43:04.314Z,100.00
2018-09-24T04:44:04.417Z,100.00
2018-09-24T04:45:04.846Z,100.00
2018-09-24T04:46:05.152Z,100.00
2018-09-24T04:47:05.462Z,100.00
2018-09-24T04:48:05.794Z,100.00
2018-09-24T04:49:06.350Z,100.00
2018-09-24T04:50:05.350Z,100.00
2018-09-24T04:51:06.202Z,100.00
2018-09-24T04:52:06.825Z,100.00
2018-09-24T04:53:06.634Z,100.00
2018-09-24T04:54:07.130Z,100.00
2018-09-24T04:55:07.221Z,100.00
2018-09-24T04:56:07.334Z,100.00
2018-09-24T04:57:07.333Z,100.00
2018-09-24T04:58:07.636Z,100.00
2018-09-24T04:59:07.883Z,100.00
2018-09-24T05:00:08.117Z,100.00
2018-09-24T05:01:08.060Z,100.00
2018-09-24T05:02:08.894Z,100.00
2018-09-24T05:03:09.067Z,100.00
2018-09-24T05:04:09.614Z,100.00
2018-09-24T05:05:09.878Z,100.00
2018-09-24T05:06:09.785Z,100.00
2018-09-24T05:07:09.762Z,100.00
2018-09-24T05:08:10.279Z,100.00
2018-09-24T05:09:10.239Z,100.00
2018-09-24T05:10:11.013Z,100.00
2018-09-24T05:11:11.238Z,100.00
2018-09-24T05:12:11.199Z,100.00
2018-09-24T05:13:11.644Z,100.00
2018-09-24T05:14:12.113Z,100.00
2018-09-24T05:15:12.973Z,100.00
2018-09-24T05:16:13.074Z,100.00
2018-09-24T05:17:13.199Z,100.00
2018-09-24T05:18:13.172Z,100.00
2018-09-24T05:19:13.684Z,100.00
2018-09-24T05:20:13.778Z,100.00
2018-09-24T05:21:14.488Z,100.00
2018-09-24T05:22:14.482Z,100.00
2018-09-24T05:23:14.968Z,100.00
2018-09-24T05:24:15.457Z,100.00
2018-09-24T05:25:16.557Z,100.00
2018-09-24T05:26:16.262Z,100.00
2018-09-24T05:27:16.360Z,100.00
2018-09-24T05:28:16.575Z,100.00
2018-09-24T05:29:16.631Z,100.00
2018-09-24T05:30:17.317Z,100.00
2018-09-24T05:31:16.849Z,100.00
2018-09-24T05:32:16.878Z,100.00
2018-09-24T05:33:16.849Z,100.00
2018-09-24T05:34:17.386Z,100.00
2018-09-24T05:35:17.677Z,100.00
2018-09-24T05:36:17.693Z,100.00
2018-09-24T05:37:17.704Z,100.00
2018-09-24T05:38:19.009Z,100.00
2018-09-24T05:39:18.997Z,100.00
2018-09-24T05:40:19.640Z,100.00
2018-09-24T05:41:20.000Z,100.00
2018-09-24T05:42:20.361Z,100.00
2018-09-24T05:43:20.780Z,100.00
2018-09-24T05:44:21.423Z,100.00
2018-09-24T05:45:21.412Z,100.00
2018-09-24T05:46:21.940Z,100.00
2018-09-24T05:47:21.832Z,100.00
2018-09-24T05:48:22.020Z,100.00
2018-09-24T05:49:22.018Z,100.00
2018-09-24T05:50:22.160Z,100.00
2018-09-24T05:51:22.142Z,100.00
2018-09-24T05:52:22.404Z,100.00
2018-09-24T05:53:22.769Z,100.00
2018-09-24T05:54:23.002Z,100.00
2018-09-24T05:55:23.246Z,100.00
2018-09-24T05:56:23.979Z,100.00
2018-09-24T05:57:23.952Z,100.00
2018-09-24T05:58:24.205Z,100.00
2018-09-24T05:59:24.483Z,100.00
2018-09-24T06:00:24.785Z,100.00
2018-09-24T06:01:25.011Z,100.00
2018-09-24T06:02:24.960Z,100.00
2018-09-24T06:03:25.654Z,100.00
2018-09-24T06:04:25.709Z,100.00
2018-09-24T06:05:25.658Z,100.00
2018-09-24T06:06:26.566Z,100.00
2018-09-24T06:07:26.595Z,100.00
2018-09-24T06:08:26.618Z,100.00
2018-09-24T06:09:26.572Z,100.00
2018-09-24T06:10:27.212Z,100.00
2018-09-24T06:11:27.230Z,100.00
2018-09-24T06:12:27.297Z,100.00
2018-09-24T06:13:27.355Z,100.00
2018-09-24T06:14:27.259Z,100.00
2018-09-24T06:15:27.820Z,100.00
2018-09-24T06:16:27.785Z,100.00
2018-09-24T06:17:27.859Z,99.84
2018-09-24T06:18:28.611Z,99.83
2018-09-24T06:19:28.614Z,99.50
2018-09-24T06:20:28.621Z,99.81
2018-09-24T06:21:28.631Z,99.62
2018-09-24T06:22:29.433Z,99.25
2018-09-24T06:23:29.466Z,99.67
2018-09-24T06:24:29.520Z,99.58
2018-09-24T06:25:29.480Z,99.65
2018-09-24T06:26:30.358Z,99.54
2018-09-24T06:27:30.337Z,98.79
2018-09-24T06:28:30.907Z,99.17
2018-09-24T06:29:30.831Z,99.24
2018-09-24T06:30:31.348Z,98.35
2018-09-24T06:31:31.454Z,98.18
2018-09-24T06:32:31.479Z,98.50
2018-09-24T06:33:31.388Z,98.39
2018-09-24T06:34:31.892Z,98.60
2018-09-24T06:35:31.930Z,98.04
2018-09-24T06:36:31.921Z,97.84
2018-09-24T06:37:32.425Z,97.90
2018-09-24T06:38:32.427Z,96.54
2018-09-24T06:39:32.440Z,97.29
2018-09-24T06:40:32.481Z,96.23
2018-09-24T06:41:32.452Z,96.67
2018-09-24T06:42:33.043Z,96.25
2018-09-24T06:43:33.561Z,96.56
2018-09-24T06:44:33.569Z,96.63
2018-09-24T06:45:33.576Z,96.39
2018-09-24T06:46:34.196Z,95.63
2018-09-24T06:47:34.524Z,94.70
2018-09-24T06:48:34.823Z,94.99
2018-09-24T06:49:35.606Z,93.36
2018-09-24T06:50:35.758Z,95.40
2018-09-24T06:51:35.969Z,94.73
2018-09-24T06:52:36.016Z,94.80
2018-09-24T06:53:36.089Z,94.21
2018-09-24T06:54:36.067Z,94.07
2018-09-24T06:55:36.207Z,92.07
2018-09-24T06:56:36.844Z,92.88
2018-09-24T06:57:36.740Z,92.55
2018-09-24T06:58:36.812Z,93.20
2018-09-24T06:59:37.015Z,92.25
2018-09-24T07:00:37.131Z,92.19
2018-09-24T07:01:37.216Z,91.66
2018-09-24T07:02:37.231Z,91.83
2018-09-24T07:03:37.511Z,91.92
2018-09-24T07:04:37.783Z,91.18
2018-09-24T07:05:38.068Z,90.20
2018-09-24T07:06:38.528Z,89.88
2018-09-24T07:07:38.429Z,88.91
2018-09-24T07:08:38.799Z,88.76
2018-09-24T07:09:39.241Z,87.51
2018-09-24T07:10:39.358Z,88.13
2018-09-24T07:11:39.343Z,87.16
2018-09-24T07:12:39.840Z,87.78
2018-09-24T07:13:40.603Z,86.32
2018-09-24T07:14:40.554Z,86.58
2018-09-24T07:15:41.070Z,84.50
2018-09-24T07:16:41.501Z,85.32
2018-09-24T07:17:41.501Z,86.71
2018-09-24T07:18:42.084Z,84.61
2018-09-24T07:19:42.272Z,84.49
2018-09-24T07:20:42.395Z,85.61
2018-09-24T07:21:42.360Z,83.53
2018-09-24T07:22:42.875Z,84.25
2018-09-24T07:23:43.299Z,83.42
2018-09-24T07:24:43.843Z,81.45
2018-09-24T07:25:43.952Z,81.46
2018-09-24T07:26:44.287Z,81.22
2018-09-24T07:27:44.531Z,83.14
2018-09-24T07:28:44.440Z,81.87
2018-09-24T07:29:44.449Z,79.45
2018-09-24T07:30:44.449Z,79.51
2018-09-24T07:31:44.881Z,79.57
2018-09-24T07:32:45.398Z,81.80
2018-09-24T07:33:45.383Z,79.92
2018-09-24T07:34:45.908Z,79.17
2018-09-24T07:35:45.955Z,79.73
2018-09-24T07:36:46.254Z,78.26
2018-09-24T07:37:46.303Z,77.18
2018-09-24T07:38:46.298Z,79.18
2018-09-24T07:39:47.011Z,78.12
2018-09-24T07:40:47.109Z,78.70
2018-09-24T07:41:47.131Z,76.20
2018-09-24T07:42:47.277Z,78.29
2018-09-24T07:43:47.303Z,75.70
2018-09-24T07:44:47.307Z,76.27
2018-09-24T07:45:47.412Z,76.02
2018-09-24T07:46:48.520Z,74.36
2018-09-24T07:47:48.113Z,74.45
2018-09-24T07:48:48.538Z,73.79
2018-09-24T07:49:49.561Z,73.94
2018-09-24T07:50:49.570Z,73.79
2018-09-24T07:51:49.474Z,70.39
2018-09-24T07:52:50.095Z,71.45
2018-09-24T07:53:50.007Z,68.97
2018-09-24T07:54:50.618Z,68.73
2018-09-24T07:55:50.726Z,68.23
2018-09-24T07:56:50.628Z,65.85
2018-09-24T07:57:51.025Z,66.66
2018-09-24T07:58:52.688Z,64.95
2018-09-24T07:59:51.389Z,64.94
2018-09-24T08:00:51.966Z,64.12
2018-09-24T08:01:51.890Z,64.12
2018-09-24T08:02:51.963Z,63.57
2018-09-24T08:03:52.003Z,61.47
2018-09-24T08:04:51.999Z,63.10
2018-09-24T08:05:52.466Z,61.63
2018-09-24T08:06:52.898Z,61.87
2018-09-24T08:07:53.263Z,61.69
2018-09-24T08:08:53.622Z,60.94
2018-09-24T08:09:54.345Z,60.32
2018-09-24T08:10:54.055Z,59.79
2018-09-24T08:11:54.160Z,59.45
2018-09-24T08:12:54.332Z,59.55
2018-09-24T08:13:54.525Z,59.93
2018-09-24T08:14:54.714Z,59.71
2018-09-24T08:15:54.732Z,58.08
2018-09-24T08:16:54.816Z,59.09
2018-09-24T08:17:54.916Z,58.53
2018-09-24T08:18:54.936Z,58.01
2018-09-24T08:19:54.899Z,58.01
2018-09-24T08:20:55.767Z,58.54
2018-09-24T08:21:55.641Z,56.63
2018-09-24T08:22:56.302Z,57.85
2018-09-24T08:23:56.526Z,55.73
2018-09-24T08:24:56.451Z,56.28
2018-09-24T08:25:56.946Z,57.20
2018-09-24T08:26:57.799Z,56.00
2018-09-24T08:27:57.822Z,56.73
2018-09-24T08:28:58.049Z,55.77
2018-09-24T08:29:57.836Z,53.70
2018-09-24T08:30:58.397Z,54.83
2018-09-24T08:31:58.361Z,54.52
2018-09-24T08:32:58.762Z,54.66
2018-09-24T08:33:59.377Z,52.34
2018-09-24T08:34:59.296Z,52.62
2018-09-24T08:35:59.818Z,53.91
2018-09-24T08:37:00.211Z,53.77
2018-09-24T08:38:00.290Z,51.81
2018-09-24T08:39:00.347Z,52.79
2018-09-24T08:40:00.291Z,52.49
2018-09-24T08:42:01.028Z,52.13
2018-09-24T08:43:01.111Z,51.44
2018-09-24T08:44:01.132Z,51.62
2018-09-24T08:45:01.286Z,50.71
2018-09-24T08:46:01.219Z,50.19
2018-09-24T08:47:02.618Z,51.47
2018-09-24T08:48:02.327Z,50.97
2018-09-24T08:49:02.560Z,50.32
2018-09-24T08:50:03.066Z,49.41
2018-09-24T08:51:02.830Z,49.88
2018-09-24T08:52:03.382Z,49.35
2018-09-24T08:53:02.784Z,49.51
2018-09-24T08:54:04.415Z,49.04
2018-09-24T08:55:04.227Z,48.72
2018-09-24T08:56:04.633Z,48.64
2018-09-24T08:57:05.096Z,48.11
2018-09-24T08:58:05.364Z,47.56
2018-09-24T08:59:05.788Z,47.92
2018-09-24T09:00:05.693Z,46.44
2018-09-24T09:01:06.033Z,46.69
2018-09-24T09:02:06.375Z,47.78
2018-09-24T09:03:06.838Z,45.69
2018-09-24T09:04:07.042Z,46.34
2018-09-24T09:05:07.215Z,46.16
2018-09-24T09:06:07.264Z,46.67
2018-09-24T09:07:07.328Z,46.36
2018-09-24T09:08:07.337Z,45.92
2018-09-24T09:09:07.427Z,46.21
2018-09-24T09:10:07.384Z,46.35
2018-09-24T09:11:07.637Z,45.98
2018-09-24T09:12:07.847Z,45.86
2018-09-24T09:13:07.768Z,45.75
2018-09-24T09:14:08.004Z,45.55
2018-09-24T09:15:08.351Z,46.51
2018-09-24T09:16:09.151Z,47.28
2018-09-24T09:17:09.022Z,47.09
2018-09-24T09:18:09.175Z,47.47
2018-09-24T09:19:09.377Z,48.27
2018-09-24T09:20:09.539Z,48.47
2018-09-24T09:21:09.574Z,50.43
2018-09-24T09:22:09.691Z,50.33
2018-09-24T09:23:09.671Z,49.79
2018-09-24T09:24:10.350Z,49.90
2018-09-24T09:25:10.573Z,49.24
2018-09-24T09:26:10.869Z,48.67
2018-09-24T09:27:10.982Z,47.32
2018-09-24T09:28:10.949Z,46.69
2018-09-24T09:29:11.458Z,45.86
2018-09-24T09:30:11.916Z,44.79
2018-09-24T09:31:12.352Z,43.97
2018-09-24T09:32:12.844Z,43.00
2018-09-24T09:33:13.309Z,43.53
2018-09-24T09:34:13.827Z,43.61
2018-09-24T09:35:14.308Z,43.21
2018-09-24T09:36:14.615Z,42.86
2018-09-24T09:37:14.577Z,43.58
2018-09-24T09:38:15.069Z,41.97
2018-09-24T09:39:15.587Z,42.87
2018-09-24T09:40:16.199Z,41.98
2018-09-24T09:41:16.122Z,43.34
2018-09-24T09:42:16.197Z,42.71
2018-09-24T09:43:16.323Z,44.02
2018-09-24T09:44:16.237Z,45.29
2018-09-24T09:45:16.438Z,43.45
2018-09-24T09:46:16.460Z,42.17
2018-09-24T09:47:16.461Z,41.67
2018-09-24T09:48:16.974Z,41.28
2018-09-24T09:49:16.985Z,41.19
2018-09-24T09:50:17.373Z,41.64
2018-09-24T09:51:17.309Z,41.48
2018-09-24T09:52:17.832Z,40.20
2018-09-24T09:53:19.019Z,39.74
2018-09-24T09:54:19.247Z,40.03
2018-09-24T09:55:19.777Z,39.65
2018-09-24T09:56:19.579Z,38.77
2018-09-24T09:57:19.999Z,42.42
2018-09-24T09:58:20.402Z,43.48
2018-09-24T09:59:20.917Z,42.63
2018-09-24T10:00:20.901Z,40.41
2018-09-24T10:01:21.223Z,39.03
2018-09-24T10:02:21.857Z,39.07
2018-09-24T10:03:21.661Z,38.94
2018-09-24T10:04:22.145Z,38.58
2018-09-24T10:05:22.259Z,38.52
2018-09-24T10:06:22.389Z,38.40
2018-09-24T10:07:22.474Z,38.31
2018-09-24T10:08:22.398Z,38.10
2018-09-24T10:09:22.660Z,38.23
2018-09-24T10:10:22.584Z,37.75
2018-09-24T10:11:23.353Z,37.92
2018-09-24T10:12:23.729Z,37.92
2018-09-24T10:13:23.988Z,38.23
2018-09-24T10:14:24.382Z,38.90
2018-09-24T10:15:24.399Z,39.21
2018-09-24T10:16:24.700Z,39.10
2018-09-24T10:17:24.879Z,40.30
2018-09-24T10:18:24.892Z,40.47
2018-09-24T10:19:24.907Z,40.29
2018-09-24T10:20:24.981Z,39.90
2018-09-24T10:22:24.987Z,40.53
2018-09-24T10:23:25.396Z,40.94
2018-09-24T10:24:26.024Z,41.60
2018-09-24T10:25:26.210Z,41.51
2018-09-24T10:26:26.245Z,42.10
2018-09-24T10:27:26.522Z,42.52
2018-09-24T10:28:26.617Z,43.29
2018-09-24T10:29:26.609Z,43.20
2018-09-24T10:30:27.202Z,43.15
2018-09-24T10:31:27.564Z,43.60
2018-09-24T10:32:27.773Z,43.77
2018-09-24T10:33:27.865Z,44.35
2018-09-24T10:34:27.766Z,44.60
2018-09-24T10:35:28.488Z,44.10
2018-09-24T10:36:28.697Z,43.99
2018-09-24T10:37:28.614Z,44.14
2018-09-24T10:38:29.087Z,43.88
2018-09-24T10:39:29.620Z,42.97
2018-09-24T10:40:29.569Z,43.26
2018-09-24T10:41:29.605Z,43.03
2018-09-24T10:42:30.133Z,42.61
2018-09-24T10:43:30.133Z,43.63
2018-09-24T10:44:30.686Z,42.42
2018-09-24T10:46:30.845Z,43.15
2018-09-24T10:47:31.030Z,42.41
2018-09-24T10:48:31.276Z,42.33
2018-09-24T10:49:31.249Z,42.38
2018-09-24T10:50:31.669Z,42.31
2018-09-24T10:51:33.098Z,41.92
2018-09-24T10:52:32.563Z,41.64
2018-09-24T10:53:33.668Z,41.32
2018-09-24T10:54:34.081Z,41.03
2018-09-24T10:55:34.294Z,41.16
2018-09-24T10:56:35.022Z,41.36
2018-09-24T10:57:34.912Z,41.29
2018-09-24T10:58:35.340Z,41.29
2018-09-24T10:59:35.806Z,41.56
2018-09-24T11:00:36.087Z,41.58
2018-09-24T11:01:36.586Z,41.90
2018-09-24T11:02:36.733Z,41.52
2018-09-24T11:03:36.899Z,41.48
2018-09-24T11:04:37.087Z,41.61
2018-09-24T11:06:37.203Z,41.65
2018-09-24T11:07:37.305Z,40.86
2018-09-24T11:08:37.396Z,41.23
2018-09-24T11:09:37.553Z,41.13
2018-09-24T11:10:36.988Z,40.28
2018-09-24T11:11:37.709Z,40.90
2018-09-24T11:12:38.083Z,40.99
2018-09-24T11:13:38.389Z,41.17
2018-09-24T11:14:38.618Z,41.39
2018-09-24T11:15:39.119Z,40.81
2018-09-24T11:16:39.505Z,39.44
2018-09-24T11:17:39.588Z,39.12
2018-09-24T11:18:39.510Z,37.90
2018-09-24T11:19:39.566Z,38.00
2018-09-24T11:20:39.502Z,37.42
2018-09-24T11:21:40.084Z,36.81
2018-09-24T11:22:40.513Z,36.77
2018-09-24T11:23:40.479Z,36.20
2018-09-24T11:24:41.027Z,35.88
2018-09-24T11:25:41.244Z,35.81
2018-09-24T11:26:41.393Z,35.64
2018-09-24T11:27:41.420Z,34.66
2018-09-24T11:28:42.391Z,35.20
2018-09-24T11:29:42.109Z,34.72
2018-09-24T11:30:42.532Z,34.91
2018-09-24T11:31:42.582Z,34.54
2018-09-24T11:32:42.556Z,34.35
2018-09-24T11:33:43.252Z,34.56
2018-09-24T11:34:43.380Z,34.24
2018-09-24T11:35:43.373Z,33.47
2018-09-24T11:36:43.789Z,33.67
2018-09-24T11:37:44.323Z,32.45
2018-09-24T11:38:44.487Z,32.93
2018-09-24T11:39:44.438Z,32.47
2018-09-24T11:40:45.201Z,32.35
2018-09-24T11:41:45.409Z,32.17
2018-09-24T11:42:45.417Z,32.37
2018-09-24T11:43:45.379Z,32.40
2018-09-24T11:44:45.892Z,32.53
2018-09-24T11:45:45.894Z,31.61
2018-09-24T11:46:46.435Z,31.68
2018-09-24T11:47:46.908Z,33.47
2018-09-24T11:48:46.846Z,34.08
2018-09-24T11:49:47.368Z,33.37
2018-09-24T11:50:47.479Z,33.92
2018-09-24T11:51:47.476Z,33.84
2018-09-24T11:52:48.704Z,34.36
2018-09-24T11:53:48.899Z,33.17
2018-09-24T11:54:49.220Z,34.32
2018-09-24T11:55:49.721Z,33.73
2018-09-24T11:56:49.639Z,34.83
2018-09-24T11:57:50.255Z,35.52
2018-09-24T11:58:50.162Z,34.80
2018-09-24T11:59:50.680Z,34.11
2018-09-24T12:00:50.891Z,35.20
2018-09-24T12:01:51.101Z,35.71
2018-09-24T12:02:51.170Z,36.15
2018-09-24T12:03:51.253Z,36.41
2018-09-24T12:04:51.187Z,37.26
2018-09-24T12:05:51.646Z,37.18
2018-09-24T12:06:52.151Z,37.47
2018-09-24T12:07:52.240Z,35.89
2018-09-24T12:08:52.231Z,36.46
2018-09-24T12:09:52.443Z,37.51
2018-09-24T12:10:52.686Z,37.14
2018-09-24T12:11:53.026Z,35.57
2018-09-24T12:13:53.422Z,35.17
2018-09-24T12:14:53.691Z,34.83
2018-09-24T12:15:53.912Z,34.39
2018-09-24T12:16:54.061Z,33.60
2018-09-24T12:17:54.209Z,33.96
2018-09-24T12:18:54.256Z,34.36
2018-09-24T12:19:54.347Z,34.12
2018-09-24T12:20:54.515Z,35.37
2018-09-24T12:21:54.612Z,34.79
2018-09-24T12:22:54.554Z,33.60
2018-09-24T12:23:55.006Z,32.67
2018-09-24T12:24:55.580Z,32.94
2018-09-24T12:25:55.584Z,33.68
2018-09-24T12:26:55.595Z,33.69
2018-09-24T12:27:55.662Z,32.91
2018-09-24T12:28:55.715Z,34.06
2018-09-24T12:29:55.726Z,34.77
2018-09-24T12:30:55.641Z,35.11
2018-09-24T12:32:00.623Z,35.12
2018-09-24T12:32:56.710Z,35.19
2018-09-24T12:33:56.671Z,34.31
2018-09-24T12:34:57.189Z,34.76
2018-09-24T12:35:57.095Z,35.56
2018-09-24T12:36:57.602Z,35.42
2018-09-24T12:37:57.861Z,35.53
2018-09-24T12:38:58.209Z,34.15
2018-09-24T12:39:58.510Z,34.97
2018-09-24T12:40:58.425Z,33.38
2018-09-24T12:41:58.856Z,34.90
2018-09-24T12:42:59.573Z,35.54
2018-09-24T12:43:59.601Z,34.06
2018-09-24T12:44:59.600Z,34.96
2018-09-24T12:45:59.641Z,35.30
2018-09-24T12:46:59.854Z,34.68
2018-09-24T12:47:59.883Z,34.34
2018-09-24T12:49:00.594Z,34.40
2018-09-24T12:50:00.501Z,34.74
2018-09-24T12:51:01.013Z,34.97
2018-09-24T12:52:01.045Z,34.32
2018-09-24T12:53:01.076Z,34.12
2018-09-24T12:54:01.234Z,33.96
2018-09-24T12:55:01.325Z,34.42
2018-09-24T12:56:01.889Z,34.40
2018-09-24T12:57:01.450Z,34.04